sensor_id;sensor_type;location;lat;lon;timestamp;temperature;humidity
53498;DHT22;39382;47.168;16.008;2023-07-20T00:02:23;19.20;99.90
53498;DHT22;39382;47.168;16.008;2023-07-20T00:04:49;19.20;99.90
53498;DHT22;39382;47.168;16.008;2023-07-20T00:07:14;19.10;99.90
53498;DHT22;39382;47.168;16.008;2023-07-20T00:09:40;19.10;99.90
53498;DHT22;39382;47.168;16.008;2023-07-20T00:12:06;19.00;99.90
53498;DHT22;39382;47.168;16.008;2023-07-20T00:14:32;19.00;99.90
53498;DHT22;39382;47.168;16.008;2023-07-20T00:16:57;18.90;99.90
53498;DHT22;39382;47.168;16.008;2023-07-20T00:19:24;18.90;99.90
53498;DHT22;39382;47.168;16.008;2023-07-20T00:21:50;18.90;99.90
53498;DHT22;39382;47.168;16.008;2023-07-20T00:24:15;18.90;99.90
53498;DHT22;39382;47.168;16.008;2023-07-20T00:26:41;18.90;99.90
53498;DHT22;39382;47.168;16.008;2023-07-20T00:29:07;18.90;99.90
53498;DHT22;39382;47.168;16.008;2023-07-20T00:31:32;18.80;99.90
53498;DHT22;39382;47.168;16.008;2023-07-20T00:34:00;18.70;99.90
53498;DHT22;39382;47.168;16.008;2023-07-20T00:36:26;18.70;99.90
53498;DHT22;39382;47.168;16.008;2023-07-20T00:38:51;18.70;99.90
53498;DHT22;39382;47.168;16.008;2023-07-20T00:41:17;18.80;99.90
53498;DHT22;39382;47.168;16.008;2023-07-20T00:43:42;18.80;99.90
53498;DHT22;39382;47.168;16.008;2023-07-20T00:46:09;18.70;99.90
53498;DHT22;39382;47.168;16.008;2023-07-20T00:48:35;18.70;99.90
53498;DHT22;39382;47.168;16.008;2023-07-20T00:51:01;18.70;99.90
53498;DHT22;39382;47.168;16.008;2023-07-20T00:53:28;18.70;99.90
53498;DHT22;39382;47.168;16.008;2023-07-20T00:55:54;18.70;99.90
53498;DHT22;39382;47.168;16.008;2023-07-20T00:58:20;18.70;99.90
53498;DHT22;39382;47.168;16.008;2023-07-20T01:00:45;18.70;99.90
53498;DHT22;39382;47.168;16.008;2023-07-20T01:03:12;18.70;99.90
53498;DHT22;39382;47.168;16.008;2023-07-20T01:05:59;18.70;99.90
53498;DHT22;39382;47.168;16.008;2023-07-20T01:08:57;18.70;99.90
53498;DHT22;39382;47.168;16.008;2023-07-20T01:11:57;18.50;99.90
53498;DHT22;39382;47.168;16.008;2023-07-20T01:14:25;18.50;99.90
53498;DHT22;39382;47.168;16.008;2023-07-20T01:16:51;18.50;99.90
53498;DHT22;39382;47.168;16.008;2023-07-20T01:19:17;18.50;99.90
53498;DHT22;39382;47.168;16.008;2023-07-20T01:21:50;18.50;99.90
53498;DHT22;39382;47.168;16.008;2023-07-20T01:27:59;18.60;99.90
53498;DHT22;39382;47.168;16.008;2023-07-20T01:30:24;18.60;99.90
53498;DHT22;39382;47.168;16.008;2023-07-20T01:32:53;18.50;99.90
53498;DHT22;39382;47.168;16.008;2023-07-20T01:35:20;18.60;99.90
53498;DHT22;39382;47.168;16.008;2023-07-20T01:37:49;18.60;99.90
53498;DHT22;39382;47.168;16.008;2023-07-20T01:40:16;18.70;99.90
53498;DHT22;39382;47.168;16.008;2023-07-20T01:42:48;18.60;99.90
53498;DHT22;39382;47.168;16.008;2023-07-20T01:45:14;18.60;99.90
53498;DHT22;39382;47.168;16.008;2023-07-20T01:47:40;18.50;99.90
53498;DHT22;39382;47.168;16.008;2023-07-20T01:50:06;18.60;99.90
53498;DHT22;39382;47.168;16.008;2023-07-20T01:52:32;18.60;99.90
53498;DHT22;39382;47.168;16.008;2023-07-20T01:54:58;18.50;99.90
53498;DHT22;39382;47.168;16.008;2023-07-20T01:57:23;18.50;99.90
53498;DHT22;39382;47.168;16.008;2023-07-20T01:59:49;18.50;99.90
53498;DHT22;39382;47.168;16.008;2023-07-20T02:02:15;18.50;99.90
53498;DHT22;39382;47.168;16.008;2023-07-20T02:04:40;18.50;99.90
53498;DHT22;39382;47.168;16.008;2023-07-20T02:07:06;18.60;99.90
53498;DHT22;39382;47.168;16.008;2023-07-20T02:09:31;18.60;99.90
53498;DHT22;39382;47.168;16.008;2023-07-20T02:11:57;18.70;99.90
53498;DHT22;39382;47.168;16.008;2023-07-20T02:14:23;18.60;99.90
53498;DHT22;39382;47.168;16.008;2023-07-20T02:16:48;18.60;99.90
53498;DHT22;39382;47.168;16.008;2023-07-20T02:19:18;18.60;99.90
53498;DHT22;39382;47.168;16.008;2023-07-20T02:21:44;18.60;99.90
53498;DHT22;39382;47.168;16.008;2023-07-20T02:24:10;18.70;99.90
53498;DHT22;39382;47.168;16.008;2023-07-20T02:26:35;18.70;99.90
53498;DHT22;39382;47.168;16.008;2023-07-20T02:29:01;18.70;99.90
53498;DHT22;39382;47.168;16.008;2023-07-20T02:31:30;18.70;99.90
53498;DHT22;39382;47.168;16.008;2023-07-20T02:33:55;18.70;99.90
53498;DHT22;39382;47.168;16.008;2023-07-20T02:36:21;18.70;99.90
53498;DHT22;39382;47.168;16.008;2023-07-20T02:38:47;18.80;99.90
53498;DHT22;39382;47.168;16.008;2023-07-20T02:41:13;18.80;99.90
53498;DHT22;39382;47.168;16.008;2023-07-20T02:43:39;18.70;99.90
53498;DHT22;39382;47.168;16.008;2023-07-20T02:46:04;18.60;99.90
53498;DHT22;39382;47.168;16.008;2023-07-20T02:48:30;18.60;99.90
53498;DHT22;39382;47.168;16.008;2023-07-20T02:50:56;18.70;99.90
53498;DHT22;39382;47.168;16.008;2023-07-20T02:53:21;18.70;99.90
53498;DHT22;39382;47.168;16.008;2023-07-20T02:55:47;18.60;99.90
53498;DHT22;39382;47.168;16.008;2023-07-20T02:58:13;18.50;99.90
53498;DHT22;39382;47.168;16.008;2023-07-20T03:00:38;18.50;99.90
53498;DHT22;39382;47.168;16.008;2023-07-20T03:03:04;18.50;99.90
53498;DHT22;39382;47.168;16.008;2023-07-20T03:05:30;18.50;99.90
53498;DHT22;39382;47.168;16.008;2023-07-20T03:07:56;18.50;99.90
53498;DHT22;39382;47.168;16.008;2023-07-20T03:10:22;18.50;99.90
53498;DHT22;39382;47.168;16.008;2023-07-20T03:12:47;18.40;99.90
53498;DHT22;39382;47.168;16.008;2023-07-20T03:15:13;18.40;99.90
53498;DHT22;39382;47.168;16.008;2023-07-20T03:17:38;18.40;99.90
53498;DHT22;39382;47.168;16.008;2023-07-20T03:20:04;18.40;99.90
53498;DHT22;39382;47.168;16.008;2023-07-20T03:22:34;18.40;99.90
53498;DHT22;39382;47.168;16.008;2023-07-20T03:24:59;18.40;99.90
53498;DHT22;39382;47.168;16.008;2023-07-20T03:27:25;18.40;99.90
53498;DHT22;39382;47.168;16.008;2023-07-20T03:29:51;18.40;99.90
53498;DHT22;39382;47.168;16.008;2023-07-20T03:32:16;18.40;99.90
53498;DHT22;39382;47.168;16.008;2023-07-20T03:34:42;18.40;99.90
53498;DHT22;39382;47.168;16.008;2023-07-20T03:37:09;18.40;99.90
53498;DHT22;39382;47.168;16.008;2023-07-20T03:39:35;18.40;99.90
53498;DHT22;39382;47.168;16.008;2023-07-20T03:42:00;18.40;99.90
53498;DHT22;39382;47.168;16.008;2023-07-20T03:44:26;18.50;99.90
53498;DHT22;39382;47.168;16.008;2023-07-20T03:46:52;18.50;99.90
53498;DHT22;39382;47.168;16.008;2023-07-20T03:49:18;18.50;99.90
53498;DHT22;39382;47.168;16.008;2023-07-20T03:51:43;18.50;99.90
53498;DHT22;39382;47.168;16.008;2023-07-20T03:54:09;18.50;99.90
53498;DHT22;39382;47.168;16.008;2023-07-20T03:56:34;18.50;99.90
53498;DHT22;39382;47.168;16.008;2023-07-20T03:59:01;18.50;99.90
53498;DHT22;39382;47.168;16.008;2023-07-20T04:01:27;18.60;99.90
53498;DHT22;39382;47.168;16.008;2023-07-20T04:03:52;18.60;99.90
53498;DHT22;39382;47.168;16.008;2023-07-20T04:06:18;18.60;99.90
53498;DHT22;39382;47.168;16.008;2023-07-20T04:08:44;18.70;99.90
53498;DHT22;39382;47.168;16.008;2023-07-20T04:11:10;18.80;99.90
53498;DHT22;39382;47.168;16.008;2023-07-20T04:13:36;18.90;99.90
53498;DHT22;39382;47.168;16.008;2023-07-20T04:16:01;19.00;99.90
53498;DHT22;39382;47.168;16.008;2023-07-20T04:18:28;19.00;99.90
53498;DHT22;39382;47.168;16.008;2023-07-20T04:20:53;20.40;99.90
53498;DHT22;39382;47.168;16.008;2023-07-20T04:23:19;20.80;99.90
53498;DHT22;39382;47.168;16.008;2023-07-20T04:25:45;21.10;99.90
53498;DHT22;39382;47.168;16.008;2023-07-20T04:28:10;21.30;99.90
53498;DHT22;39382;47.168;16.008;2023-07-20T04:30:37;21.50;99.90
53498;DHT22;39382;47.168;16.008;2023-07-20T04:33:03;21.70;99.90
53498;DHT22;39382;47.168;16.008;2023-07-20T04:35:46;21.60;99.90
53498;DHT22;39382;47.168;16.008;2023-07-20T04:38:13;21.40;99.90
53498;DHT22;39382;47.168;16.008;2023-07-20T04:40:40;21.40;99.90
53498;DHT22;39382;47.168;16.008;2023-07-20T04:43:06;21.40;99.90
53498;DHT22;39382;47.168;16.008;2023-07-20T04:45:32;21.40;99.90
53498;DHT22;39382;47.168;16.008;2023-07-20T04:47:58;21.50;99.90
53498;DHT22;39382;47.168;16.008;2023-07-20T04:50:23;21.40;99.90
53498;DHT22;39382;47.168;16.008;2023-07-20T04:52:50;21.50;99.90
53498;DHT22;39382;47.168;16.008;2023-07-20T04:55:16;21.50;99.90
53498;DHT22;39382;47.168;16.008;2023-07-20T04:57:42;21.80;99.90
53498;DHT22;39382;47.168;16.008;2023-07-20T05:00:07;22.20;99.90
53498;DHT22;39382;47.168;16.008;2023-07-20T05:02:35;22.30;99.90
53498;DHT22;39382;47.168;16.008;2023-07-20T05:05:02;22.20;99.90
53498;DHT22;39382;47.168;16.008;2023-07-20T05:07:30;22.10;99.90
53498;DHT22;39382;47.168;16.008;2023-07-20T05:09:56;22.10;99.90
53498;DHT22;39382;47.168;16.008;2023-07-20T05:12:22;21.90;99.90
53498;DHT22;39382;47.168;16.008;2023-07-20T05:14:47;21.90;99.90
53498;DHT22;39382;47.168;16.008;2023-07-20T05:17:13;21.90;99.90
53498;DHT22;39382;47.168;16.008;2023-07-20T05:19:38;22.00;99.90
53498;DHT22;39382;47.168;16.008;2023-07-20T05:22:04;22.00;99.90
53498;DHT22;39382;47.168;16.008;2023-07-20T05:24:31;21.90;99.90
53498;DHT22;39382;47.168;16.008;2023-07-20T05:26:57;21.80;99.90
53498;DHT22;39382;47.168;16.008;2023-07-20T05:29:23;21.90;99.90
53498;DHT22;39382;47.168;16.008;2023-07-20T05:31:49;21.90;99.90
53498;DHT22;39382;47.168;16.008;2023-07-20T05:34:14;21.90;99.90
53498;DHT22;39382;47.168;16.008;2023-07-20T05:37:11;21.70;99.90
53498;DHT22;39382;47.168;16.008;2023-07-20T05:39:36;21.90;99.90
53498;DHT22;39382;47.168;16.008;2023-07-20T05:42:02;22.00;99.90
53498;DHT22;39382;47.168;16.008;2023-07-20T05:44:28;21.90;99.90
53498;DHT22;39382;47.168;16.008;2023-07-20T05:46:53;22.10;99.90
53498;DHT22;39382;47.168;16.008;2023-07-20T05:49:19;22.20;99.90
53498;DHT22;39382;47.168;16.008;2023-07-20T05:51:44;22.10;99.90
53498;DHT22;39382;47.168;16.008;2023-07-20T05:54:12;22.20;99.90
53498;DHT22;39382;47.168;16.008;2023-07-20T05:56:37;22.10;99.90
53498;DHT22;39382;47.168;16.008;2023-07-20T05:59:03;22.00;99.90
53498;DHT22;39382;47.168;16.008;2023-07-20T06:01:28;22.10;99.90
53498;DHT22;39382;47.168;16.008;2023-07-20T06:03:54;22.20;99.90
53498;DHT22;39382;47.168;16.008;2023-07-20T06:06:19;22.20;99.90
53498;DHT22;39382;47.168;16.008;2023-07-20T06:08:46;22.20;99.90
53498;DHT22;39382;47.168;16.008;2023-07-20T06:11:11;22.10;99.90
53498;DHT22;39382;47.168;16.008;2023-07-20T06:13:37;22.20;99.90
53498;DHT22;39382;47.168;16.008;2023-07-20T06:16:03;22.10;99.90
53498;DHT22;39382;47.168;16.008;2023-07-20T06:18:29;22.10;99.90
53498;DHT22;39382;47.168;16.008;2023-07-20T06:20:56;22.00;99.90
53498;DHT22;39382;47.168;16.008;2023-07-20T06:23:22;22.00;99.90
53498;DHT22;39382;47.168;16.008;2023-07-20T06:25:48;22.00;99.90
53498;DHT22;39382;47.168;16.008;2023-07-20T06:28:14;22.00;99.90
53498;DHT22;39382;47.168;16.008;2023-07-20T06:30:40;22.00;99.90
53498;DHT22;39382;47.168;16.008;2023-07-20T06:33:05;22.10;99.90
53498;DHT22;39382;47.168;16.008;2023-07-20T06:35:33;22.10;99.90
53498;DHT22;39382;47.168;16.008;2023-07-20T06:37:59;22.10;99.90
53498;DHT22;39382;47.168;16.008;2023-07-20T06:40:26;22.00;99.90
53498;DHT22;39382;47.168;16.008;2023-07-20T06:42:51;22.00;99.90
53498;DHT22;39382;47.168;16.008;2023-07-20T06:45:17;21.90;99.90
53498;DHT22;39382;47.168;16.008;2023-07-20T06:47:43;21.90;99.90
53498;DHT22;39382;47.168;16.008;2023-07-20T06:50:09;22.00;99.90
53498;DHT22;39382;47.168;16.008;2023-07-20T06:52:35;22.00;99.90
53498;DHT22;39382;47.168;16.008;2023-07-20T06:55:01;22.10;99.90
53498;DHT22;39382;47.168;16.008;2023-07-20T06:57:26;22.20;99.90
53498;DHT22;39382;47.168;16.008;2023-07-20T06:59:52;22.20;99.90
53498;DHT22;39382;47.168;16.008;2023-07-20T07:02:19;22.20;99.90
53498;DHT22;39382;47.168;16.008;2023-07-20T07:04:45;22.40;99.90
53498;DHT22;39382;47.168;16.008;2023-07-20T07:07:15;22.50;99.90
53498;DHT22;39382;47.168;16.008;2023-07-20T07:09:41;22.50;99.90
53498;DHT22;39382;47.168;16.008;2023-07-20T07:12:08;22.70;99.90
53498;DHT22;39382;47.168;16.008;2023-07-20T07:14:33;22.90;99.90
53498;DHT22;39382;47.168;16.008;2023-07-20T07:17:00;23.00;99.90
53498;DHT22;39382;47.168;16.008;2023-07-20T07:19:25;22.90;99.90
53498;DHT22;39382;47.168;16.008;2023-07-20T07:21:51;22.90;99.90
53498;DHT22;39382;47.168;16.008;2023-07-20T07:24:17;22.90;99.90
53498;DHT22;39382;47.168;16.008;2023-07-20T07:26:42;22.90;99.90
53498;DHT22;39382;47.168;16.008;2023-07-20T07:29:08;22.90;99.90
53498;DHT22;39382;47.168;16.008;2023-07-20T07:31:34;23.00;99.90
53498;DHT22;39382;47.168;16.008;2023-07-20T07:34:04;23.00;99.90
53498;DHT22;39382;47.168;16.008;2023-07-20T07:36:30;23.20;99.90
53498;DHT22;39382;47.168;16.008;2023-07-20T07:38:56;23.30;99.90
53498;DHT22;39382;47.168;16.008;2023-07-20T07:41:22;23.30;99.90
53498;DHT22;39382;47.168;16.008;2023-07-20T07:43:48;23.40;99.90
53498;DHT22;39382;47.168;16.008;2023-07-20T07:46:14;23.40;99.90
53498;DHT22;39382;47.168;16.008;2023-07-20T07:48:39;23.50;99.90
53498;DHT22;39382;47.168;16.008;2023-07-20T07:51:05;23.60;99.60
53498;DHT22;39382;47.168;16.008;2023-07-20T07:53:31;23.60;99.20
53498;DHT22;39382;47.168;16.008;2023-07-20T07:55:58;23.90;98.60
53498;DHT22;39382;47.168;16.008;2023-07-20T07:58:24;23.90;96.00
53498;DHT22;39382;47.168;16.008;2023-07-20T08:00:49;24.10;96.30
53498;DHT22;39382;47.168;16.008;2023-07-20T08:03:15;24.30;96.30
53498;DHT22;39382;47.168;16.008;2023-07-20T08:05:41;24.40;95.00
53498;DHT22;39382;47.168;16.008;2023-07-20T08:08:06;24.50;95.10
53498;DHT22;39382;47.168;16.008;2023-07-20T08:10:33;24.70;93.60
53498;DHT22;39382;47.168;16.008;2023-07-20T08:12:59;24.90;94.50
53498;DHT22;39382;47.168;16.008;2023-07-20T08:15:25;25.00;95.10
53498;DHT22;39382;47.168;16.008;2023-07-20T08:17:50;25.10;95.10
53498;DHT22;39382;47.168;16.008;2023-07-20T08:20:17;25.20;94.30
53498;DHT22;39382;47.168;16.008;2023-07-20T08:22:43;25.40;94.30
53498;DHT22;39382;47.168;16.008;2023-07-20T08:25:09;25.50;92.30
53498;DHT22;39382;47.168;16.008;2023-07-20T08:27:35;25.70;90.40
53498;DHT22;39382;47.168;16.008;2023-07-20T08:30:02;25.90;90.30
53498;DHT22;39382;47.168;16.008;2023-07-20T08:32:28;26.10;89.60
53498;DHT22;39382;47.168;16.008;2023-07-20T08:34:53;26.40;82.20
53498;DHT22;39382;47.168;16.008;2023-07-20T08:37:19;26.50;77.00
53498;DHT22;39382;47.168;16.008;2023-07-20T08:39:45;26.50;77.30
53498;DHT22;39382;47.168;16.008;2023-07-20T08:42:10;26.50;71.60
53498;DHT22;39382;47.168;16.008;2023-07-20T08:44:38;26.60;69.40
53498;DHT22;39382;47.168;16.008;2023-07-20T08:47:06;26.50;71.10
53498;DHT22;39382;47.168;16.008;2023-07-20T08:49:32;26.40;68.60
53498;DHT22;39382;47.168;16.008;2023-07-20T08:51:59;26.50;75.40
53498;DHT22;39382;47.168;16.008;2023-07-20T08:54:30;26.60;73.90
53498;DHT22;39382;47.168;16.008;2023-07-20T08:57:02;26.80;72.40
53498;DHT22;39382;47.168;16.008;2023-07-20T08:59:29;27.10;71.40
53498;DHT22;39382;47.168;16.008;2023-07-20T09:01:56;27.20;66.20
53498;DHT22;39382;47.168;16.008;2023-07-20T09:04:22;27.30;65.30
53498;DHT22;39382;47.168;16.008;2023-07-20T09:06:49;27.40;64.50
53498;DHT22;39382;47.168;16.008;2023-07-20T09:09:16;27.30;63.60
53498;DHT22;39382;47.168;16.008;2023-07-20T09:11:42;27.30;63.70
53498;DHT22;39382;47.168;16.008;2023-07-20T09:14:09;27.40;61.30
53498;DHT22;39382;47.168;16.008;2023-07-20T09:16:49;27.50;60.90
53498;DHT22;39382;47.168;16.008;2023-07-20T09:19:15;27.50;60.00
53498;DHT22;39382;47.168;16.008;2023-07-20T09:21:44;27.60;58.50
53498;DHT22;39382;47.168;16.008;2023-07-20T09:24:11;27.70;59.90
53498;DHT22;39382;47.168;16.008;2023-07-20T09:26:41;27.70;57.10
53498;DHT22;39382;47.168;16.008;2023-07-20T09:29:07;27.70;57.90
53498;DHT22;39382;47.168;16.008;2023-07-20T09:31:34;27.70;56.40
53498;DHT22;39382;47.168;16.008;2023-07-20T09:33:59;27.70;59.00
53498;DHT22;39382;47.168;16.008;2023-07-20T09:36:27;27.80;58.00
53498;DHT22;39382;47.168;16.008;2023-07-20T09:38:53;28.10;60.00
53498;DHT22;39382;47.168;16.008;2023-07-20T09:41:20;28.30;61.20
53498;DHT22;39382;47.168;16.008;2023-07-20T09:43:46;28.50;59.60
53498;DHT22;39382;47.168;16.008;2023-07-20T09:46:12;28.30;56.90
53498;DHT22;39382;47.168;16.008;2023-07-20T09:48:37;28.30;57.70
53498;DHT22;39382;47.168;16.008;2023-07-20T09:51:03;28.40;57.10
53498;DHT22;39382;47.168;16.008;2023-07-20T09:53:32;28.50;55.50
53498;DHT22;39382;47.168;16.008;2023-07-20T09:55:58;28.60;57.00
53498;DHT22;39382;47.168;16.008;2023-07-20T09:58:26;28.60;56.90
53498;DHT22;39382;47.168;16.008;2023-07-20T10:00:52;28.60;57.30
53498;DHT22;39382;47.168;16.008;2023-07-20T10:03:21;28.70;55.40
53498;DHT22;39382;47.168;16.008;2023-07-20T10:06:08;28.80;54.50
53498;DHT22;39382;47.168;16.008;2023-07-20T10:08:39;28.80;56.40
53498;DHT22;39382;47.168;16.008;2023-07-20T10:11:07;28.80;58.40
53498;DHT22;39382;47.168;16.008;2023-07-20T10:13:37;28.90;54.70
53498;DHT22;39382;47.168;16.008;2023-07-20T10:16:14;29.30;54.80
53498;DHT22;39382;47.168;16.008;2023-07-20T10:19:11;29.40;53.80
53498;DHT22;39382;47.168;16.008;2023-07-20T10:21:40;29.50;52.30
53498;DHT22;39382;47.168;16.008;2023-07-20T10:24:07;29.60;52.90
53498;DHT22;39382;47.168;16.008;2023-07-20T10:26:34;29.80;52.30
53498;DHT22;39382;47.168;16.008;2023-07-20T10:29:01;29.70;50.20
53498;DHT22;39382;47.168;16.008;2023-07-20T10:31:28;29.60;48.90
53498;DHT22;39382;47.168;16.008;2023-07-20T10:33:56;29.50;51.30
53498;DHT22;39382;47.168;16.008;2023-07-20T10:36:26;29.50;50.10
53498;DHT22;39382;47.168;16.008;2023-07-20T10:38:57;29.80;51.10
53498;DHT22;39382;47.168;16.008;2023-07-20T10:41:35;30.20;52.70
53498;DHT22;39382;47.168;16.008;2023-07-20T10:44:06;30.70;52.20
53498;DHT22;39382;47.168;16.008;2023-07-20T10:49:05;30.80;48.20
53498;DHT22;39382;47.168;16.008;2023-07-20T10:51:48;30.70;49.10
53498;DHT22;39382;47.168;16.008;2023-07-20T10:56:47;30.20;50.90
53498;DHT22;39382;47.168;16.008;2023-07-20T11:01:47;29.90;50.70
53498;DHT22;39382;47.168;16.008;2023-07-20T11:04:13;29.80;50.70
53498;DHT22;39382;47.168;16.008;2023-07-20T11:06:43;29.80;51.30
53498;DHT22;39382;47.168;16.008;2023-07-20T11:09:10;30.00;50.00
53498;DHT22;39382;47.168;16.008;2023-07-20T11:11:43;30.00;48.80
53498;DHT22;39382;47.168;16.008;2023-07-20T11:14:29;29.90;47.80
53498;DHT22;39382;47.168;16.008;2023-07-20T11:17:11;29.80;48.20
53498;DHT22;39382;47.168;16.008;2023-07-20T11:19:39;29.90;46.70
53498;DHT22;39382;47.168;16.008;2023-07-20T11:22:05;30.00;48.00
53498;DHT22;39382;47.168;16.008;2023-07-20T11:24:33;29.80;47.80
53498;DHT22;39382;47.168;16.008;2023-07-20T11:26:59;29.50;49.20
53498;DHT22;39382;47.168;16.008;2023-07-20T11:29:26;29.20;49.30
53498;DHT22;39382;47.168;16.008;2023-07-20T11:31:52;29.00;51.40
53498;DHT22;39382;47.168;16.008;2023-07-20T11:34:19;28.70;51.80
53498;DHT22;39382;47.168;16.008;2023-07-20T11:36:49;28.50;52.20
53498;DHT22;39382;47.168;16.008;2023-07-20T11:39:16;28.40;55.50
53498;DHT22;39382;47.168;16.008;2023-07-20T11:41:50;28.30;53.20
53498;DHT22;39382;47.168;16.008;2023-07-20T11:44:16;28.40;57.10
53498;DHT22;39382;47.168;16.008;2023-07-20T11:46:43;28.40;56.20
53498;DHT22;39382;47.168;16.008;2023-07-20T11:49:10;28.30;56.00
53498;DHT22;39382;47.168;16.008;2023-07-20T11:51:36;28.30;53.40
53498;DHT22;39382;47.168;16.008;2023-07-20T11:54:04;28.40;56.90
53498;DHT22;39382;47.168;16.008;2023-07-20T11:56:30;28.50;58.00
53498;DHT22;39382;47.168;16.008;2023-07-20T11:58:57;28.40;57.10
53498;DHT22;39382;47.168;16.008;2023-07-20T12:01:25;28.20;55.90
53498;DHT22;39382;47.168;16.008;2023-07-20T12:03:55;28.10;61.70
53498;DHT22;39382;47.168;16.008;2023-07-20T12:06:26;28.00;68.00
53498;DHT22;39382;47.168;16.008;2023-07-20T12:08:55;27.50;68.40
53498;DHT22;39382;47.168;16.008;2023-07-20T12:11:38;27.20;77.20
53498;DHT22;39382;47.168;16.008;2023-07-20T12:14:08;26.80;87.20
53498;DHT22;39382;47.168;16.008;2023-07-20T12:16:36;25.90;83.00
53498;DHT22;39382;47.168;16.008;2023-07-20T12:19:03;25.20;89.30
53498;DHT22;39382;47.168;16.008;2023-07-20T12:21:39;24.80;94.70
53498;DHT22;39382;47.168;16.008;2023-07-20T12:24:05;24.70;99.90
53498;DHT22;39382;47.168;16.008;2023-07-20T12:26:32;24.40;99.90
53498;DHT22;39382;47.168;16.008;2023-07-20T12:28:59;23.70;99.90
53498;DHT22;39382;47.168;16.008;2023-07-20T12:31:25;23.20;99.90
53498;DHT22;39382;47.168;16.008;2023-07-20T12:33:52;22.50;99.90
53498;DHT22;39382;47.168;16.008;2023-07-20T12:36:18;21.80;99.90
53498;DHT22;39382;47.168;16.008;2023-07-20T12:38:44;21.30;99.90
53498;DHT22;39382;47.168;16.008;2023-07-20T12:41:11;20.90;99.90
53498;DHT22;39382;47.168;16.008;2023-07-20T12:43:41;20.70;99.90
53498;DHT22;39382;47.168;16.008;2023-07-20T12:46:06;20.90;99.90
53498;DHT22;39382;47.168;16.008;2023-07-20T12:48:32;21.60;99.90
53498;DHT22;39382;47.168;16.008;2023-07-20T12:50:58;22.00;99.90
53498;DHT22;39382;47.168;16.008;2023-07-20T12:53:24;22.20;99.90
53498;DHT22;39382;47.168;16.008;2023-07-20T12:55:49;22.00;99.90
53498;DHT22;39382;47.168;16.008;2023-07-20T12:58:15;22.10;99.90
53498;DHT22;39382;47.168;16.008;2023-07-20T13:00:41;22.20;99.90
53498;DHT22;39382;47.168;16.008;2023-07-20T13:03:07;22.10;99.90
53498;DHT22;39382;47.168;16.008;2023-07-20T13:05:34;22.00;99.90
53498;DHT22;39382;47.168;16.008;2023-07-20T13:08:01;22.00;99.90
53498;DHT22;39382;47.168;16.008;2023-07-20T13:10:27;22.10;99.90
53498;DHT22;39382;47.168;16.008;2023-07-20T13:12:52;22.20;99.90
53498;DHT22;39382;47.168;16.008;2023-07-20T13:15:18;22.30;99.90
53498;DHT22;39382;47.168;16.008;2023-07-20T13:17:44;22.30;99.90
53498;DHT22;39382;47.168;16.008;2023-07-20T13:20:11;22.50;99.90
53498;DHT22;39382;47.168;16.008;2023-07-20T13:22:37;22.50;99.90
53498;DHT22;39382;47.168;16.008;2023-07-20T13:25:03;22.50;99.90
53498;DHT22;39382;47.168;16.008;2023-07-20T13:27:29;22.60;99.90
53498;DHT22;39382;47.168;16.008;2023-07-20T13:29:56;22.80;99.90
53498;DHT22;39382;47.168;16.008;2023-07-20T13:32:22;22.90;99.90
53498;DHT22;39382;47.168;16.008;2023-07-20T13:34:47;22.80;99.90
53498;DHT22;39382;47.168;16.008;2023-07-20T13:37:14;22.80;99.90
53498;DHT22;39382;47.168;16.008;2023-07-20T13:39:39;22.60;99.90
53498;DHT22;39382;47.168;16.008;2023-07-20T13:42:05;22.60;99.90
53498;DHT22;39382;47.168;16.008;2023-07-20T13:44:32;22.60;99.90
53498;DHT22;39382;47.168;16.008;2023-07-20T13:46:58;22.50;99.90
53498;DHT22;39382;47.168;16.008;2023-07-20T13:49:24;22.30;99.90
53498;DHT22;39382;47.168;16.008;2023-07-20T13:51:49;22.30;99.90
53498;DHT22;39382;47.168;16.008;2023-07-20T13:54:15;22.40;99.90
53498;DHT22;39382;47.168;16.008;2023-07-20T13:56:40;22.50;99.90
53498;DHT22;39382;47.168;16.008;2023-07-20T13:59:06;22.50;99.90
53498;DHT22;39382;47.168;16.008;2023-07-20T14:01:32;22.40;99.90
53498;DHT22;39382;47.168;16.008;2023-07-20T14:04:02;22.30;99.90
53498;DHT22;39382;47.168;16.008;2023-07-20T14:06:32;22.40;99.90
53498;DHT22;39382;47.168;16.008;2023-07-20T14:08:58;22.40;99.90
53498;DHT22;39382;47.168;16.008;2023-07-20T14:11:24;22.50;99.90
53498;DHT22;39382;47.168;16.008;2023-07-20T14:13:53;22.60;99.90
53498;DHT22;39382;47.168;16.008;2023-07-20T14:16:20;22.70;99.90
53498;DHT22;39382;47.168;16.008;2023-07-20T14:18:45;22.80;99.90
53498;DHT22;39382;47.168;16.008;2023-07-20T14:21:15;22.60;99.90
53498;DHT22;39382;47.168;16.008;2023-07-20T14:23:40;22.50;99.90
53498;DHT22;39382;47.168;16.008;2023-07-20T14:26:06;22.60;99.90
53498;DHT22;39382;47.168;16.008;2023-07-20T14:28:33;22.60;99.90
53498;DHT22;39382;47.168;16.008;2023-07-20T14:30:58;22.70;99.90
53498;DHT22;39382;47.168;16.008;2023-07-20T14:33:24;22.60;99.90
53498;DHT22;39382;47.168;16.008;2023-07-20T14:35:50;22.60;99.90
53498;DHT22;39382;47.168;16.008;2023-07-20T14:38:15;22.70;99.90
53498;DHT22;39382;47.168;16.008;2023-07-20T14:40:41;22.70;99.90
53498;DHT22;39382;47.168;16.008;2023-07-20T14:43:07;22.80;99.90
53498;DHT22;39382;47.168;16.008;2023-07-20T14:45:32;22.80;99.90
53498;DHT22;39382;47.168;16.008;2023-07-20T14:47:58;22.80;99.90
53498;DHT22;39382;47.168;16.008;2023-07-20T14:50:24;22.90;99.90
53498;DHT22;39382;47.168;16.008;2023-07-20T14:52:50;23.00;99.90
53498;DHT22;39382;47.168;16.008;2023-07-20T14:55:15;23.10;99.90
53498;DHT22;39382;47.168;16.008;2023-07-20T14:57:42;23.20;99.90
53498;DHT22;39382;47.168;16.008;2023-07-20T15:00:08;23.30;99.90
53498;DHT22;39382;47.168;16.008;2023-07-20T15:02:36;23.30;99.90
53498;DHT22;39382;47.168;16.008;2023-07-20T15:05:08;23.40;99.90
53498;DHT22;39382;47.168;16.008;2023-07-20T15:07:34;23.40;99.90
53498;DHT22;39382;47.168;16.008;2023-07-20T15:10:01;23.50;99.90
53498;DHT22;39382;47.168;16.008;2023-07-20T15:12:26;23.60;99.90
53498;DHT22;39382;47.168;16.008;2023-07-20T15:15:10;23.80;99.90
53498;DHT22;39382;47.168;16.008;2023-07-20T15:17:37;23.90;99.90
53498;DHT22;39382;47.168;16.008;2023-07-20T15:20:05;23.90;99.90
53498;DHT22;39382;47.168;16.008;2023-07-20T15:22:32;23.90;99.90
53498;DHT22;39382;47.168;16.008;2023-07-20T15:24:59;23.90;99.90
53498;DHT22;39382;47.168;16.008;2023-07-20T15:27:24;23.80;99.90